To NAV CANADA Home Page Login to a new session Search on AWWS site Feedback and Comments Disclaimer Vers la page française équivalente Tips FAQ What's new on the site To the Forecasts and Observations / NOTAM section To "File a Flight Plan" website Publications and other links Update of the User's profile FIC Telephone Numbers My Weather Data Folder Route Weather Data Regional Weather Data Local Weather Data To the Forecasts and Observations / NOTAM section
Request Generated 02/24/2017 at 03:36:17 UTC . Weather information available at that time is displayed.

METAR/TAF

COLD LAKE/GROUP CAPTAIN R.W. MCNAIR/AB    

METAR CYOD 240300Z 18003KT 15SM OVC082 M08/M11 A3006 RMK AC8 SLP225=
METAR CYOD 240200Z 19003KT 15SM OVC088 M08/M11 A3007 RMK AC8 SLP227=
METAR CYOD 240100Z 21004KT 15SM BKN094 M08/M11 A3006 RMK AC6 SLP225=

TAF CYOD 232336Z 2400/2424 26005KT P6SM SCT020 BKN120 TEMPO 2400/2402
5SM -SHSN BKN020
FM240800 VRB03KT P6SM SCT015 BKN030 TEMPO 2408/2418 P6SM -SHSN
BKN015 OVC030
BECMG 2416/2418 33008KT
RMK NXT FCST BY 240600Z=
Your time UTC time
Weather data provided by Environment Canada and NAV CANADA